sensor_id;sensor_type;location;lat;lon;timestamp;P1;durP1;ratioP1;P2;durP2;ratioP2
68438;SDS011;55421;51.600;5.718;2024-03-08T00:00:44;29.60;;;15.40;;
68438;SDS011;55421;51.600;5.718;2024-03-08T00:03:31;34.60;;;15.70;;
68438;SDS011;55421;51.600;5.718;2024-03-08T00:05:59;27.80;;;15.20;;
68438;SDS011;55421;51.600;5.718;2024-03-08T00:08:25;30.30;;;15.40;;
68438;SDS011;55421;51.600;5.718;2024-03-08T00:10:52;36.00;;;16.40;;
68438;SDS011;55421;51.600;5.718;2024-03-08T00:13:18;30.80;;;15.10;;
68438;SDS011;55421;51.600;5.718;2024-03-08T00:15:45;33.10;;;16.40;;
68438;SDS011;55421;51.600;5.718;2024-03-08T00:18:11;33.50;;;14.40;;
68438;SDS011;55421;51.600;5.718;2024-03-08T00:20:38;32.30;;;15.30;;
68438;SDS011;55421;51.600;5.718;2024-03-08T00:23:05;32.30;;;16.20;;
68438;SDS011;55421;51.600;5.718;2024-03-08T00:25:31;32.70;;;16.40;;
68438;SDS011;55421;51.600;5.718;2024-03-08T00:27:58;33.80;;;15.60;;
68438;SDS011;55421;51.600;5.718;2024-03-08T00:30:26;28.70;;;15.40;;
68438;SDS011;55421;51.600;5.718;2024-03-08T00:32:52;29.80;;;15.60;;
68438;SDS011;55421;51.600;5.718;2024-03-08T00:35:18;32.80;;;15.00;;
68438;SDS011;55421;51.600;5.718;2024-03-08T00:37:45;28.30;;;16.00;;
68438;SDS011;55421;51.600;5.718;2024-03-08T00:40:13;35.00;;;17.20;;
68438;SDS011;55421;51.600;5.718;2024-03-08T00:42:40;32.30;;;15.80;;
68438;SDS011;55421;51.600;5.718;2024-03-08T00:45:09;31.00;;;14.70;;
68438;SDS011;55421;51.600;5.718;2024-03-08T00:47:36;30.10;;;14.80;;
68438;SDS011;55421;51.600;5.718;2024-03-08T00:50:03;28.70;;;15.10;;
68438;SDS011;55421;51.600;5.718;2024-03-08T00:52:30;30.00;;;16.00;;
68438;SDS011;55421;51.600;5.718;2024-03-08T00:54:56;31.10;;;16.00;;
68438;SDS011;55421;51.600;5.718;2024-03-08T00:57:23;27.90;;;15.50;;
68438;SDS011;55421;51.600;5.718;2024-03-08T00:59:49;28.70;;;15.40;;
68438;SDS011;55421;51.600;5.718;2024-03-08T01:02:16;28.80;;;15.00;;
68438;SDS011;55421;51.600;5.718;2024-03-08T01:04:45;28.70;;;15.30;;
68438;SDS011;55421;51.600;5.718;2024-03-08T01:07:13;28.80;;;15.50;;
68438;SDS011;55421;51.600;5.718;2024-03-08T01:09:40;33.20;;;16.80;;
68438;SDS011;55421;51.600;5.718;2024-03-08T01:12:07;30.20;;;15.70;;
68438;SDS011;55421;51.600;5.718;2024-03-08T01:14:33;32.80;;;14.60;;
68438;SDS011;55421;51.600;5.718;2024-03-08T01:17:00;33.20;;;15.00;;
68438;SDS011;55421;51.600;5.718;2024-03-08T01:19:26;31.40;;;16.20;;
68438;SDS011;55421;51.600;5.718;2024-03-08T01:21:53;32.00;;;15.10;;
68438;SDS011;55421;51.600;5.718;2024-03-08T01:24:22;29.70;;;17.00;;
68438;SDS011;55421;51.600;5.718;2024-03-08T01:26:49;31.80;;;16.00;;
68438;SDS011;55421;51.600;5.718;2024-03-08T01:29:15;28.80;;;15.50;;
68438;SDS011;55421;51.600;5.718;2024-03-08T01:31:42;28.30;;;15.80;;
68438;SDS011;55421;51.600;5.718;2024-03-08T01:34:09;30.60;;;15.20;;
68438;SDS011;55421;51.600;5.718;2024-03-08T01:36:36;28.30;;;15.90;;
68438;SDS011;55421;51.600;5.718;2024-03-08T01:39:03;29.50;;;16.00;;
68438;SDS011;55421;51.600;5.718;2024-03-08T01:41:34;34.20;;;18.20;;
68438;SDS011;55421;51.600;5.718;2024-03-08T01:44:02;29.60;;;15.70;;
68438;SDS011;55421;51.600;5.718;2024-03-08T01:46:30;28.00;;;14.80;;
68438;SDS011;55421;51.600;5.718;2024-03-08T01:48:57;31.60;;;15.30;;
68438;SDS011;55421;51.600;5.718;2024-03-08T01:51:27;31.60;;;16.40;;
68438;SDS011;55421;51.600;5.718;2024-03-08T01:53:55;33.20;;;17.80;;
68438;SDS011;55421;51.600;5.718;2024-03-08T01:56:24;28.70;;;16.20;;
68438;SDS011;55421;51.600;5.718;2024-03-08T01:58:51;32.60;;;15.60;;
68438;SDS011;55421;51.600;5.718;2024-03-08T02:01:19;29.00;;;15.80;;
68438;SDS011;55421;51.600;5.718;2024-03-08T02:03:45;28.80;;;16.40;;
68438;SDS011;55421;51.600;5.718;2024-03-08T02:06:12;29.80;;;17.10;;
68438;SDS011;55421;51.600;5.718;2024-03-08T02:08:45;34.70;;;18.70;;
68438;SDS011;55421;51.600;5.718;2024-03-08T02:11:13;31.90;;;16.00;;
68438;SDS011;55421;51.600;5.718;2024-03-08T02:13:39;31.70;;;16.10;;
68438;SDS011;55421;51.600;5.718;2024-03-08T02:16:06;29.20;;;15.40;;
68438;SDS011;55421;51.600;5.718;2024-03-08T02:18:34;32.90;;;16.90;;
68438;SDS011;55421;51.600;5.718;2024-03-08T02:21:02;37.10;;;19.30;;
68438;SDS011;55421;51.600;5.718;2024-03-08T02:23:30;33.20;;;16.70;;
68438;SDS011;55421;51.600;5.718;2024-03-08T02:26:01;30.90;;;16.10;;
68438;SDS011;55421;51.600;5.718;2024-03-08T02:28:27;30.60;;;16.60;;
68438;SDS011;55421;51.600;5.718;2024-03-08T02:30:55;31.60;;;16.90;;
68438;SDS011;55421;51.600;5.718;2024-03-08T02:33:22;30.70;;;18.10;;
68438;SDS011;55421;51.600;5.718;2024-03-08T02:35:50;37.80;;;20.20;;
68438;SDS011;55421;51.600;5.718;2024-03-08T02:38:21;34.30;;;16.80;;
68438;SDS011;55421;51.600;5.718;2024-03-08T02:40:49;32.90;;;16.00;;
68438;SDS011;55421;51.600;5.718;2024-03-08T02:43:18;29.80;;;16.00;;
68438;SDS011;55421;51.600;5.718;2024-03-08T02:45:46;31.30;;;17.50;;
68438;SDS011;55421;51.600;5.718;2024-03-08T02:48:14;33.80;;;18.70;;
68438;SDS011;55421;51.600;5.718;2024-03-08T02:50:42;30.20;;;15.90;;
68438;SDS011;55421;51.600;5.718;2024-03-08T02:53:11;33.00;;;16.40;;
68438;SDS011;55421;51.600;5.718;2024-03-08T02:55:39;36.20;;;16.80;;
68438;SDS011;55421;51.600;5.718;2024-03-08T02:58:07;35.90;;;18.20;;
68438;SDS011;55421;51.600;5.718;2024-03-08T03:00:37;37.50;;;19.30;;
68438;SDS011;55421;51.600;5.718;2024-03-08T03:03:07;32.80;;;17.10;;
68438;SDS011;55421;51.600;5.718;2024-03-08T03:05:34;34.30;;;18.30;;
68438;SDS011;55421;51.600;5.718;2024-03-08T03:08:01;31.70;;;17.10;;
68438;SDS011;55421;51.600;5.718;2024-03-08T03:10:27;33.00;;;18.50;;
68438;SDS011;55421;51.600;5.718;2024-03-08T03:12:54;33.20;;;18.70;;
68438;SDS011;55421;51.600;5.718;2024-03-08T03:15:21;34.90;;;18.40;;
68438;SDS011;55421;51.600;5.718;2024-03-08T03:17:48;34.60;;;17.90;;
68438;SDS011;55421;51.600;5.718;2024-03-08T03:20:19;34.80;;;18.80;;
68438;SDS011;55421;51.600;5.718;2024-03-08T03:22:59;33.80;;;18.50;;
68438;SDS011;55421;51.600;5.718;2024-03-08T03:25:27;37.00;;;18.80;;
68438;SDS011;55421;51.600;5.718;2024-03-08T03:28:01;41.40;;;20.80;;
68438;SDS011;55421;51.600;5.718;2024-03-08T03:30:29;35.90;;;18.40;;
68438;SDS011;55421;51.600;5.718;2024-03-08T03:33:00;37.00;;;19.40;;
68438;SDS011;55421;51.600;5.718;2024-03-08T03:35:28;35.30;;;18.20;;
68438;SDS011;55421;51.600;5.718;2024-03-08T03:37:55;36.30;;;19.00;;
68438;SDS011;55421;51.600;5.718;2024-03-08T03:43:03;37.00;;;18.70;;
68438;SDS011;55421;51.600;5.718;2024-03-08T03:45:30;33.60;;;18.20;;
68438;SDS011;55421;51.600;5.718;2024-03-08T03:48:05;31.10;;;17.60;;
68438;SDS011;55421;51.600;5.718;2024-03-08T03:50:32;41.40;;;20.10;;
68438;SDS011;55421;51.600;5.718;2024-03-08T03:53:00;40.70;;;21.20;;
68438;SDS011;55421;51.600;5.718;2024-03-08T03:55:28;35.30;;;19.10;;
68438;SDS011;55421;51.600;5.718;2024-03-08T03:57:55;40.20;;;20.30;;
68438;SDS011;55421;51.600;5.718;2024-03-08T04:00:22;35.80;;;18.90;;
68438;SDS011;55421;51.600;5.718;2024-03-08T04:02:48;38.30;;;20.50;;
68438;SDS011;55421;51.600;5.718;2024-03-08T04:05:15;39.80;;;20.90;;
68438;SDS011;55421;51.600;5.718;2024-03-08T04:07:41;36.40;;;18.70;;
68438;SDS011;55421;51.600;5.718;2024-03-08T04:10:09;33.50;;;19.40;;
68438;SDS011;55421;51.600;5.718;2024-03-08T04:12:35;33.00;;;18.40;;
68438;SDS011;55421;51.600;5.718;2024-03-08T04:15:02;35.30;;;19.80;;
68438;SDS011;55421;51.600;5.718;2024-03-08T04:17:29;42.80;;;21.40;;
68438;SDS011;55421;51.600;5.718;2024-03-08T04:19:56;36.00;;;19.90;;
68438;SDS011;55421;51.600;5.718;2024-03-08T04:22:23;38.20;;;20.20;;
68438;SDS011;55421;51.600;5.718;2024-03-08T04:24:49;36.90;;;20.00;;
68438;SDS011;55421;51.600;5.718;2024-03-08T04:27:17;36.90;;;19.40;;
68438;SDS011;55421;51.600;5.718;2024-03-08T04:29:43;38.80;;;20.00;;
68438;SDS011;55421;51.600;5.718;2024-03-08T04:32:10;42.60;;;22.20;;
68438;SDS011;55421;51.600;5.718;2024-03-08T04:34:39;38.50;;;20.90;;
68438;SDS011;55421;51.600;5.718;2024-03-08T04:37:06;33.50;;;18.50;;
68438;SDS011;55421;51.600;5.718;2024-03-08T04:39:33;37.70;;;19.40;;
68438;SDS011;55421;51.600;5.718;2024-03-08T04:42:02;36.90;;;19.50;;
68438;SDS011;55421;51.600;5.718;2024-03-08T04:44:30;42.60;;;22.00;;
68438;SDS011;55421;51.600;5.718;2024-03-08T04:46:58;41.00;;;19.80;;
68438;SDS011;55421;51.600;5.718;2024-03-08T04:49:24;40.50;;;19.80;;
68438;SDS011;55421;51.600;5.718;2024-03-08T04:51:51;36.60;;;18.90;;
68438;SDS011;55421;51.600;5.718;2024-03-08T04:54:17;42.10;;;21.50;;
68438;SDS011;55421;51.600;5.718;2024-03-08T04:56:44;42.40;;;21.70;;
68438;SDS011;55421;51.600;5.718;2024-03-08T04:59:12;40.60;;;19.80;;
68438;SDS011;55421;51.600;5.718;2024-03-08T05:01:39;36.60;;;19.80;;
68438;SDS011;55421;51.600;5.718;2024-03-08T05:04:06;33.10;;;18.20;;
68438;SDS011;55421;51.600;5.718;2024-03-08T05:06:32;40.50;;;19.90;;
68438;SDS011;55421;51.600;5.718;2024-03-08T05:08:59;39.10;;;20.70;;
68438;SDS011;55421;51.600;5.718;2024-03-08T05:11:26;34.70;;;18.70;;
68438;SDS011;55421;51.600;5.718;2024-03-08T05:13:53;39.40;;;20.00;;
68438;SDS011;55421;51.600;5.718;2024-03-08T05:16:20;40.10;;;19.90;;
68438;SDS011;55421;51.600;5.718;2024-03-08T05:18:48;38.30;;;20.60;;
68438;SDS011;55421;51.600;5.718;2024-03-08T05:21:15;39.00;;;21.40;;
68438;SDS011;55421;51.600;5.718;2024-03-08T05:23:43;42.50;;;21.10;;
68438;SDS011;55421;51.600;5.718;2024-03-08T05:26:10;41.30;;;20.30;;
68438;SDS011;55421;51.600;5.718;2024-03-08T05:28:36;38.90;;;20.20;;
68438;SDS011;55421;51.600;5.718;2024-03-08T05:31:03;36.40;;;19.00;;
68438;SDS011;55421;51.600;5.718;2024-03-08T05:33:29;38.60;;;21.60;;
68438;SDS011;55421;51.600;5.718;2024-03-08T05:35:56;38.90;;;21.00;;
68438;SDS011;55421;51.600;5.718;2024-03-08T05:38:22;40.40;;;20.80;;
68438;SDS011;55421;51.600;5.718;2024-03-08T05:40:49;39.60;;;20.50;;
68438;SDS011;55421;51.600;5.718;2024-03-08T05:43:17;36.00;;;18.80;;
68438;SDS011;55421;51.600;5.718;2024-03-08T05:45:46;42.10;;;21.20;;
68438;SDS011;55421;51.600;5.718;2024-03-08T05:48:13;43.30;;;21.00;;
68438;SDS011;55421;51.600;5.718;2024-03-08T05:50:40;39.60;;;19.20;;
68438;SDS011;55421;51.600;5.718;2024-03-08T05:53:07;42.60;;;19.90;;
68438;SDS011;55421;51.600;5.718;2024-03-08T05:55:33;37.50;;;19.30;;
68438;SDS011;55421;51.600;5.718;2024-03-08T05:58:02;39.30;;;19.90;;
68438;SDS011;55421;51.600;5.718;2024-03-08T06:00:29;38.50;;;20.40;;
68438;SDS011;55421;51.600;5.718;2024-03-08T06:02:57;41.80;;;20.60;;
68438;SDS011;55421;51.600;5.718;2024-03-08T06:05:25;39.50;;;20.10;;
68438;SDS011;55421;51.600;5.718;2024-03-08T06:07:51;41.20;;;19.60;;
68438;SDS011;55421;51.600;5.718;2024-03-08T06:10:19;42.60;;;20.40;;
68438;SDS011;55421;51.600;5.718;2024-03-08T06:12:46;40.70;;;20.60;;
68438;SDS011;55421;51.600;5.718;2024-03-08T06:15:12;44.10;;;20.30;;
68438;SDS011;55421;51.600;5.718;2024-03-08T06:17:41;45.20;;;21.50;;
68438;SDS011;55421;51.600;5.718;2024-03-08T06:20:08;36.20;;;19.00;;
68438;SDS011;55421;51.600;5.718;2024-03-08T06:22:39;41.50;;;20.50;;
68438;SDS011;55421;51.600;5.718;2024-03-08T06:25:11;41.00;;;20.60;;
68438;SDS011;55421;51.600;5.718;2024-03-08T06:30:14;40.50;;;19.40;;
68438;SDS011;55421;51.600;5.718;2024-03-08T06:32:42;39.00;;;19.90;;
68438;SDS011;55421;51.600;5.718;2024-03-08T06:35:09;37.30;;;20.40;;
68438;SDS011;55421;51.600;5.718;2024-03-08T06:37:36;43.40;;;21.60;;
68438;SDS011;55421;51.600;5.718;2024-03-08T06:40:03;41.80;;;20.30;;
68438;SDS011;55421;51.600;5.718;2024-03-08T06:42:30;40.40;;;20.00;;
68438;SDS011;55421;51.600;5.718;2024-03-08T06:45:01;36.10;;;18.60;;
68438;SDS011;55421;51.600;5.718;2024-03-08T06:47:31;39.50;;;20.70;;
68438;SDS011;55421;51.600;5.718;2024-03-08T06:50:03;42.00;;;22.20;;
68438;SDS011;55421;51.600;5.718;2024-03-08T06:52:30;41.40;;;20.30;;
68438;SDS011;55421;51.600;5.718;2024-03-08T06:54:56;37.10;;;20.30;;
68438;SDS011;55421;51.600;5.718;2024-03-08T06:57:23;40.60;;;20.30;;
68438;SDS011;55421;51.600;5.718;2024-03-08T06:59:50;41.30;;;19.80;;
68438;SDS011;55421;51.600;5.718;2024-03-08T07:02:18;44.50;;;20.40;;
68438;SDS011;55421;51.600;5.718;2024-03-08T07:04:45;41.20;;;20.70;;
68438;SDS011;55421;51.600;5.718;2024-03-08T07:07:11;41.50;;;20.40;;
68438;SDS011;55421;51.600;5.718;2024-03-08T07:09:38;37.20;;;19.90;;
68438;SDS011;55421;51.600;5.718;2024-03-08T07:12:05;44.20;;;20.50;;
68438;SDS011;55421;51.600;5.718;2024-03-08T07:14:32;44.50;;;22.60;;
68438;SDS011;55421;51.600;5.718;2024-03-08T07:16:59;41.60;;;20.40;;
68438;SDS011;55421;51.600;5.718;2024-03-08T07:19:25;36.90;;;19.40;;
68438;SDS011;55421;51.600;5.718;2024-03-08T07:21:52;36.50;;;18.90;;
68438;SDS011;55421;51.600;5.718;2024-03-08T07:24:18;38.30;;;20.20;;
68438;SDS011;55421;51.600;5.718;2024-03-08T07:27:04;46.20;;;22.40;;
68438;SDS011;55421;51.600;5.718;2024-03-08T07:29:32;38.70;;;20.70;;
68438;SDS011;55421;51.600;5.718;2024-03-08T07:32:00;41.80;;;20.00;;
68438;SDS011;55421;51.600;5.718;2024-03-08T07:34:27;37.30;;;19.70;;
68438;SDS011;55421;51.600;5.718;2024-03-08T07:39:25;45.90;;;22.60;;
68438;SDS011;55421;51.600;5.718;2024-03-08T07:41:52;40.70;;;20.60;;
68438;SDS011;55421;51.600;5.718;2024-03-08T07:44:21;38.10;;;19.80;;
68438;SDS011;55421;51.600;5.718;2024-03-08T07:46:47;38.70;;;19.90;;
68438;SDS011;55421;51.600;5.718;2024-03-08T07:49:14;38.00;;;21.40;;
68438;SDS011;55421;51.600;5.718;2024-03-08T07:51:41;44.60;;;22.00;;
68438;SDS011;55421;51.600;5.718;2024-03-08T07:54:08;47.20;;;21.90;;
68438;SDS011;55421;51.600;5.718;2024-03-08T07:56:35;41.40;;;20.80;;
68438;SDS011;55421;51.600;5.718;2024-03-08T07:59:02;38.90;;;18.90;;
68438;SDS011;55421;51.600;5.718;2024-03-08T08:01:32;36.40;;;18.80;;
68438;SDS011;55421;51.600;5.718;2024-03-08T08:04:00;38.30;;;21.20;;
68438;SDS011;55421;51.600;5.718;2024-03-08T08:06:29;42.10;;;21.30;;
68438;SDS011;55421;51.600;5.718;2024-03-08T08:08:59;45.40;;;21.80;;
68438;SDS011;55421;51.600;5.718;2024-03-08T08:11:27;37.70;;;19.70;;
68438;SDS011;55421;51.600;5.718;2024-03-08T08:13:54;38.00;;;19.80;;
68438;SDS011;55421;51.600;5.718;2024-03-08T08:16:24;40.20;;;21.10;;
68438;SDS011;55421;51.600;5.718;2024-03-08T08:18:52;38.20;;;21.10;;
68438;SDS011;55421;51.600;5.718;2024-03-08T08:21:19;46.70;;;22.90;;
68438;SDS011;55421;51.600;5.718;2024-03-08T08:23:45;37.90;;;20.10;;
68438;SDS011;55421;51.600;5.718;2024-03-08T08:26:12;36.20;;;19.20;;
68438;SDS011;55421;51.600;5.718;2024-03-08T08:28:39;38.20;;;19.70;;
68438;SDS011;55421;51.600;5.718;2024-03-08T08:31:07;40.00;;;20.50;;
68438;SDS011;55421;51.600;5.718;2024-03-08T08:33:34;39.20;;;21.00;;
68438;SDS011;55421;51.600;5.718;2024-03-08T08:36:02;39.80;;;20.20;;
68438;SDS011;55421;51.600;5.718;2024-03-08T08:38:29;36.50;;;18.50;;
68438;SDS011;55421;51.600;5.718;2024-03-08T08:40:56;35.50;;;19.60;;
68438;SDS011;55421;51.600;5.718;2024-03-08T08:43:22;38.30;;;19.40;;
68438;SDS011;55421;51.600;5.718;2024-03-08T08:45:51;40.70;;;20.40;;
68438;SDS011;55421;51.600;5.718;2024-03-08T08:48:20;36.90;;;20.40;;
68438;SDS011;55421;51.600;5.718;2024-03-08T08:50:47;41.40;;;21.40;;
68438;SDS011;55421;51.600;5.718;2024-03-08T08:53:14;36.90;;;18.30;;
68438;SDS011;55421;51.600;5.718;2024-03-08T08:55:41;34.90;;;18.30;;
68438;SDS011;55421;51.600;5.718;2024-03-08T08:58:07;35.80;;;18.90;;
68438;SDS011;55421;51.600;5.718;2024-03-08T09:00:34;38.20;;;19.80;;
68438;SDS011;55421;51.600;5.718;2024-03-08T09:03:00;41.30;;;19.80;;
68438;SDS011;55421;51.600;5.718;2024-03-08T09:05:28;38.90;;;19.90;;
68438;SDS011;55421;51.600;5.718;2024-03-08T09:07:55;38.50;;;20.50;;
68438;SDS011;55421;51.600;5.718;2024-03-08T09:10:21;31.60;;;17.90;;
68438;SDS011;55421;51.600;5.718;2024-03-08T09:12:48;31.60;;;16.70;;
68438;SDS011;55421;51.600;5.718;2024-03-08T09:15:14;34.50;;;19.10;;
68438;SDS011;55421;51.600;5.718;2024-03-08T09:17:43;34.00;;;18.80;;
68438;SDS011;55421;51.600;5.718;2024-03-08T09:20:10;38.70;;;19.80;;
68438;SDS011;55421;51.600;5.718;2024-03-08T09:22:44;36.80;;;19.20;;
68438;SDS011;55421;51.600;5.718;2024-03-08T09:27:38;37.50;;;19.50;;
68438;SDS011;55421;51.600;5.718;2024-03-08T09:30:08;36.70;;;19.50;;
68438;SDS011;55421;51.600;5.718;2024-03-08T09:32:35;36.60;;;19.00;;
68438;SDS011;55421;51.600;5.718;2024-03-08T09:35:03;30.90;;;16.60;;
68438;SDS011;55421;51.600;5.718;2024-03-08T09:37:33;34.40;;;17.70;;
68438;SDS011;55421;51.600;5.718;2024-03-08T09:40:00;36.80;;;19.00;;
68438;SDS011;55421;51.600;5.718;2024-03-08T09:42:30;34.80;;;18.80;;
68438;SDS011;55421;51.600;5.718;2024-03-08T09:44:58;33.20;;;18.30;;
68438;SDS011;55421;51.600;5.718;2024-03-08T09:47:25;37.40;;;19.30;;
68438;SDS011;55421;51.600;5.718;2024-03-08T09:50:00;35.20;;;18.40;;
68438;SDS011;55421;51.600;5.718;2024-03-08T09:52:29;37.00;;;19.60;;
68438;SDS011;55421;51.600;5.718;2024-03-08T09:54:56;35.20;;;19.10;;
68438;SDS011;55421;51.600;5.718;2024-03-08T09:57:25;34.10;;;18.00;;
68438;SDS011;55421;51.600;5.718;2024-03-08T09:59:52;37.80;;;19.40;;
68438;SDS011;55421;51.600;5.718;2024-03-08T10:02:19;33.30;;;18.20;;
68438;SDS011;55421;51.600;5.718;2024-03-08T10:04:47;33.60;;;17.30;;
68438;SDS011;55421;51.600;5.718;2024-03-08T10:07:14;31.60;;;17.40;;
68438;SDS011;55421;51.600;5.718;2024-03-08T10:09:40;34.50;;;18.40;;
68438;SDS011;55421;51.600;5.718;2024-03-08T10:12:15;37.50;;;19.70;;
68438;SDS011;55421;51.600;5.718;2024-03-08T10:14:45;34.80;;;18.80;;
68438;SDS011;55421;51.600;5.718;2024-03-08T10:17:12;36.30;;;18.30;;
68438;SDS011;55421;51.600;5.718;2024-03-08T10:19:49;35.40;;;18.80;;
68438;SDS011;55421;51.600;5.718;2024-03-08T10:22:18;34.40;;;17.80;;
68438;SDS011;55421;51.600;5.718;2024-03-08T10:24:46;30.30;;;17.20;;
68438;SDS011;55421;51.600;5.718;2024-03-08T10:27:13;35.50;;;18.10;;
68438;SDS011;55421;51.600;5.718;2024-03-08T10:29:40;43.20;;;19.20;;
68438;SDS011;55421;51.600;5.718;2024-03-08T10:32:10;33.20;;;18.70;;
68438;SDS011;55421;51.600;5.718;2024-03-08T10:34:36;33.20;;;19.30;;
68438;SDS011;55421;51.600;5.718;2024-03-08T10:37:04;33.20;;;18.20;;
68438;SDS011;55421;51.600;5.718;2024-03-08T10:39:35;31.90;;;18.60;;
68438;SDS011;55421;51.600;5.718;2024-03-08T10:42:04;31.50;;;17.80;;
68438;SDS011;55421;51.600;5.718;2024-03-08T10:44:44;31.30;;;17.20;;
68438;SDS011;55421;51.600;5.718;2024-03-08T10:47:30;32.30;;;17.10;;
68438;SDS011;55421;51.600;5.718;2024-03-08T10:52:51;30.90;;;17.90;;
68438;SDS011;55421;51.600;5.718;2024-03-08T10:55:19;38.00;;;17.00;;
68438;SDS011;55421;51.600;5.718;2024-03-08T10:57:46;32.10;;;17.00;;
68438;SDS011;55421;51.600;5.718;2024-03-08T11:00:14;30.50;;;17.80;;
68438;SDS011;55421;51.600;5.718;2024-03-08T11:02:45;31.20;;;17.10;;
68438;SDS011;55421;51.600;5.718;2024-03-08T11:05:31;33.50;;;16.70;;
68438;SDS011;55421;51.600;5.718;2024-03-08T11:08:20;28.40;;;15.00;;
68438;SDS011;55421;51.600;5.718;2024-03-08T11:10:51;29.80;;;16.60;;
68438;SDS011;55421;51.600;5.718;2024-03-08T11:16:09;37.20;;;16.80;;
68438;SDS011;55421;51.600;5.718;2024-03-08T11:18:37;30.10;;;16.50;;
68438;SDS011;55421;51.600;5.718;2024-03-08T11:21:04;29.50;;;17.20;;
68438;SDS011;55421;51.600;5.718;2024-03-08T11:23:38;28.90;;;17.10;;
68438;SDS011;55421;51.600;5.718;2024-03-08T11:26:23;31.00;;;17.30;;
68438;SDS011;55421;51.600;5.718;2024-03-08T11:28:51;30.30;;;16.40;;
68438;SDS011;55421;51.600;5.718;2024-03-08T11:31:23;29.90;;;17.30;;
68438;SDS011;55421;51.600;5.718;2024-03-08T11:33:53;30.20;;;17.00;;
68438;SDS011;55421;51.600;5.718;2024-03-08T11:36:22;29.80;;;17.20;;
68438;SDS011;55421;51.600;5.718;2024-03-08T11:38:51;31.30;;;17.70;;
68438;SDS011;55421;51.600;5.718;2024-03-08T11:41:20;35.20;;;17.40;;
68438;SDS011;55421;51.600;5.718;2024-03-08T11:44:05;31.90;;;17.00;;
68438;SDS011;55421;51.600;5.718;2024-03-08T11:46:32;27.70;;;15.90;;
68438;SDS011;55421;51.600;5.718;2024-03-08T11:49:00;28.90;;;16.50;;
68438;SDS011;55421;51.600;5.718;2024-03-08T11:51:27;31.10;;;17.60;;
68438;SDS011;55421;51.600;5.718;2024-03-08T11:53:53;32.00;;;17.00;;
68438;SDS011;55421;51.600;5.718;2024-03-08T11:56:20;28.40;;;16.40;;
68438;SDS011;55421;51.600;5.718;2024-03-08T11:58:54;29.70;;;16.60;;
68438;SDS011;55421;51.600;5.718;2024-03-08T12:01:23;31.10;;;16.80;;
68438;SDS011;55421;51.600;5.718;2024-03-08T12:03:54;32.80;;;18.20;;
68438;SDS011;55421;51.600;5.718;2024-03-08T12:06:26;30.00;;;16.70;;
68438;SDS011;55421;51.600;5.718;2024-03-08T12:09:02;30.50;;;16.60;;
68438;SDS011;55421;51.600;5.718;2024-03-08T12:11:29;32.80;;;18.30;;
68438;SDS011;55421;51.600;5.718;2024-03-08T12:13:57;32.40;;;17.50;;
68438;SDS011;55421;51.600;5.718;2024-03-08T12:16:24;30.70;;;17.70;;
68438;SDS011;55421;51.600;5.718;2024-03-08T12:18:51;32.30;;;17.10;;
68438;SDS011;55421;51.600;5.718;2024-03-08T12:21:20;27.80;;;16.70;;
68438;SDS011;55421;51.600;5.718;2024-03-08T12:24:02;30.40;;;16.70;;
68438;SDS011;55421;51.600;5.718;2024-03-08T12:29:17;27.70;;;15.40;;
68438;SDS011;55421;51.600;5.718;2024-03-08T12:31:52;28.90;;;17.30;;
68438;SDS011;55421;51.600;5.718;2024-03-08T12:34:19;30.00;;;17.30;;
68438;SDS011;55421;51.600;5.718;2024-03-08T12:36:51;32.20;;;17.50;;
68438;SDS011;55421;51.600;5.718;2024-03-08T12:39:23;30.40;;;17.60;;
68438;SDS011;55421;51.600;5.718;2024-03-08T12:41:56;27.70;;;17.00;;
68438;SDS011;55421;51.600;5.718;2024-03-08T12:44:23;29.90;;;15.90;;
68438;SDS011;55421;51.600;5.718;2024-03-08T12:46:50;29.50;;;16.20;;
68438;SDS011;55421;51.600;5.718;2024-03-08T12:49:17;30.70;;;17.10;;
68438;SDS011;55421;51.600;5.718;2024-03-08T12:51:44;32.70;;;17.20;;
68438;SDS011;55421;51.600;5.718;2024-03-08T12:54:11;29.60;;;16.50;;
68438;SDS011;55421;51.600;5.718;2024-03-08T12:56:38;31.00;;;17.30;;
68438;SDS011;55421;51.600;5.718;2024-03-08T12:59:07;30.60;;;17.80;;
68438;SDS011;55421;51.600;5.718;2024-03-08T13:01:34;27.30;;;16.60;;
68438;SDS011;55421;51.600;5.718;2024-03-08T13:04:04;25.70;;;15.20;;
68438;SDS011;55421;51.600;5.718;2024-03-08T13:06:33;27.90;;;15.80;;
68438;SDS011;55421;51.600;5.718;2024-03-08T13:08:59;31.10;;;18.10;;
68438;SDS011;55421;51.600;5.718;2024-03-08T13:11:32;32.30;;;18.20;;
68438;SDS011;55421;51.600;5.718;2024-03-08T13:14:03;29.80;;;17.20;;
68438;SDS011;55421;51.600;5.718;2024-03-08T13:16:33;30.00;;;16.50;;
68438;SDS011;55421;51.600;5.718;2024-03-08T13:19:01;32.50;;;17.00;;
68438;SDS011;55421;51.600;5.718;2024-03-08T13:21:32;29.00;;;16.10;;
68438;SDS011;55421;51.600;5.718;2024-03-08T13:24:04;29.90;;;17.40;;
68438;SDS011;55421;51.600;5.718;2024-03-08T13:26:31;26.30;;;16.30;;
68438;SDS011;55421;51.600;5.718;2024-03-08T13:29:00;30.90;;;17.40;;
68438;SDS011;55421;51.600;5.718;2024-03-08T13:31:26;29.60;;;16.40;;
68438;SDS011;55421;51.600;5.718;2024-03-08T13:33:53;31.40;;;16.60;;
68438;SDS011;55421;51.600;5.718;2024-03-08T13:36:29;27.50;;;16.10;;
68438;SDS011;55421;51.600;5.718;2024-03-08T13:39:10;26.90;;;15.80;;
68438;SDS011;55421;51.600;5.718;2024-03-08T13:41:43;30.70;;;17.70;;
68438;SDS011;55421;51.600;5.718;2024-03-08T13:44:11;29.90;;;16.60;;
68438;SDS011;55421;51.600;5.718;2024-03-08T13:46:37;29.60;;;17.30;;
68438;SDS011;55421;51.600;5.718;2024-03-08T13:49:05;29.30;;;17.70;;
68438;SDS011;55421;51.600;5.718;2024-03-08T13:51:34;31.50;;;17.40;;
68438;SDS011;55421;51.600;5.718;2024-03-08T13:54:00;28.70;;;17.50;;
68438;SDS011;55421;51.600;5.718;2024-03-08T13:56:28;29.50;;;18.40;;
68438;SDS011;55421;51.600;5.718;2024-03-08T13:58:57;28.30;;;17.10;;
68438;SDS011;55421;51.600;5.718;2024-03-08T14:01:23;31.90;;;17.10;;
68438;SDS011;55421;51.600;5.718;2024-03-08T14:03:51;28.20;;;17.60;;
68438;SDS011;55421;51.600;5.718;2024-03-08T14:06:17;31.10;;;17.50;;
68438;SDS011;55421;51.600;5.718;2024-03-08T14:08:44;27.80;;;16.60;;
68438;SDS011;55421;51.600;5.718;2024-03-08T14:11:11;33.50;;;18.10;;
68438;SDS011;55421;51.600;5.718;2024-03-08T14:13:42;31.10;;;17.70;;
68438;SDS011;55421;51.600;5.718;2024-03-08T14:16:13;28.70;;;16.50;;
68438;SDS011;55421;51.600;5.718;2024-03-08T14:18:39;28.40;;;17.20;;
68438;SDS011;55421;51.600;5.718;2024-03-08T14:21:07;27.10;;;16.00;;
68438;SDS011;55421;51.600;5.718;2024-03-08T14:23:36;32.40;;;18.00;;
68438;SDS011;55421;51.600;5.718;2024-03-08T14:26:03;28.40;;;17.40;;
68438;SDS011;55421;51.600;5.718;2024-03-08T14:28:33;27.60;;;16.50;;
68438;SDS011;55421;51.600;5.718;2024-03-08T14:30:59;24.60;;;15.70;;
68438;SDS011;55421;51.600;5.718;2024-03-08T14:33:29;26.80;;;16.70;;
68438;SDS011;55421;51.600;5.718;2024-03-08T14:35:55;27.40;;;16.70;;
68438;SDS011;55421;51.600;5.718;2024-03-08T14:38:22;28.70;;;16.90;;
68438;SDS011;55421;51.600;5.718;2024-03-08T14:40:48;31.30;;;18.70;;
68438;SDS011;55421;51.600;5.718;2024-03-08T14:43:15;31.90;;;17.90;;
68438;SDS011;55421;51.600;5.718;2024-03-08T14:45:42;32.30;;;17.70;;